Snaith, United Kingdom
Current Conditions -  °F | °C
As of 8:50 PM on Thursday 27 Nov 2014 (Local Time) from EGCN Reporting Station
Light Fog Light Fog  
Wind Chill: 39°   Ceiling: Unl
Heat Index: 39°   Visibility: 4mi
Dew Point: 39°   Wind: 3mph
Humidity: 100%   Direction: 200°SSW
Pressure: 29.65"   Gusts: NA
Location:  53.69°N, 1.03°W
Report Text: EGCN 272050Z 20003KT 6000 R20/0250 MIFG NSC 04/04 Q1004
Loading
Personal Weather Stations






























Interactive Weather Map New forecast layout! Learn more

10-Day Weather Forecast

Advertisements
Track Severe Weather on mobile